Time;durP1;ratioP1;P1;durP2;ratioP2;P2;SDS_P1;SDS_P2;PMS_P1;PMS_P2;Temp;Humidity;BMP_temperature;BMP_pressure;BME280_temperature;BME280_humidity;BME280_pressure;Samples;Min_cycle;Max_cycle;Signal;HPM_P1;HPM_P2
2022/08/05 00:00:49;;;;;;;;;;;;;;;28.21;33.03;100342.28;5410239;32;35269;-73
2022/08/05 00:03:51;;;;;;;;;;;;;;;27.97;33.22;100341.38;5395333;32;35121;-65
2022/08/05 00:06:53;;;;;;;;;;;;;;;27.11;35.49;100341.09;5386963;32;36020;-65
2022/08/05 00:09:56;;;;;;;;;;;;;;;27.72;33.91;100331.66;5415963;32;34660;-65
2022/08/05 00:12:59;;;;;;;;;;;;;;;27.69;34.79;100330.12;5392181;32;35077;-75
2022/08/05 00:16:01;;;;;;;;;;;;;;;27.22;35.89;100343.47;5415075;32;35596;-74
2022/08/05 00:19:03;;;;;;;;;;;;;;;27.54;34.53;100339.91;5392208;32;36014;-65
2022/08/05 00:22:05;;;;;;;;;;;;;;;27.45;34.88;100336.41;5397520;32;46739;-72
2022/08/05 00:25:07;;;;;;;;;;;;;;;27.22;35.61;100336.22;5410935;32;35186;-67
2022/08/05 00:28:13;;;;;;;;;;;;;;;27.49;34.85;100342.28;5388335;32;36585;-67
2022/08/05 00:31:21;;;;;;;;;;;;;;;27.97;33.75;100332.44;5414545;32;35324;-65
2022/08/05 00:34:44;;;;;;;;;;;;;;;28.10;30.44;100330.03;5395930;32;45045;-65
2022/08/05 00:38:05;;;;;;;;;;;;;;;27.33;36.04;100331.50;5404571;32;45083;-65
2022/08/05 00:41:10;;;;;;;;;;;;;;;27.37;35.13;100332.84;5401147;32;35617;-67
2022/08/05 00:44:12;;;;;;;;;;;;;;;27.00;36.18;100334.19;5390564;32;35645;-65
2022/08/05 00:47:14;;;;;;;;;;;;;;;26.71;35.73;100322.00;5406606;32;34950;-65
2022/08/05 00:50:17;;;;;;;;;;;;;;;26.93;36.26;100334.00;5390049;32;34713;-65
2022/08/05 00:53:22;;;;;;;;;;;;;;;26.76;35.93;100326.06;5391680;32;35087;-66
2022/08/05 00:56:44;;;;;;;;;;;;;;;26.66;36.45;100335.16;5396845;32;45445;-66
2022/08/05 00:59:52;;;;;;;;;;;;;;;26.94;36.19;100324.91;5393251;32;35175;-75
2022/08/05 01:02:55;;;;;;;;;;;;;;;27.33;35.97;100320.72;5403213;32;34809;-65
2022/08/05 01:05:56;;;;;;;;;;;;;;;27.09;35.71;100327.78;5390097;32;35235;-65
2022/08/05 01:08:59;;;;;;;;;;;;;;;26.36;37.33;100322.22;5408248;32;36051;-74
2022/08/05 01:12:08;;;;;;;;;;;;;;;26.18;39.26;100322.31;5399315;32;35677;-66
2022/08/05 01:15:25;;;;;;;;;;;;;;;26.81;37.64;100327.25;5404334;32;36365;-65
2022/08/05 01:18:39;;;;;;;;;;;;;;;27.21;36.48;100306.72;5406751;32;44284;-66
2022/08/05 01:21:48;;;;;;;;;;;;;;;26.47;38.27;100324.66;5393878;32;34513;-67
2022/08/05 01:24:51;;;;;;;;;;;;;;;26.41;38.38;100326.16;5416409;32;35917;-74
2022/08/05 01:28:03;;;;;;;;;;;;;;;26.46;38.22;100306.78;5387556;32;35436;-66
2022/08/05 01:31:21;;;;;;;;;;;;;;;25.99;40.04;100327.94;5404553;32;45219;-67
2022/08/05 01:34:30;;;;;;;;;;;;;;;26.62;38.43;100322.16;5410147;32;35560;-67
2022/08/05 01:37:40;;;;;;;;;;;;;;;26.05;40.29;100330.00;5395063;32;35485;-69
2022/08/05 01:40:45;;;;;;;;;;;;;;;26.12;40.48;100322.97;5407464;32;36130;-67
2022/08/05 01:43:49;;;;;;;;;;;;;;;25.76;41.44;100330.34;5397290;32;35042;-75
2022/08/05 01:46:52;;;;;;;;;;;;;;;26.30;40.33;100326.41;5404579;32;34705;-67
2022/08/05 01:49:55;;;;;;;;;;;;;;;26.83;39.33;100325.22;5400442;32;35188;-66
2022/08/05 01:53:04;;;;;;;;;;;;;;;26.29;40.39;100329.28;5386112;32;35472;-65
2022/08/05 01:56:08;;;;;;;;;;;;;;;26.90;39.12;100326.22;5415689;32;44605;-74
2022/08/05 01:59:11;;;;;;;;;;;;;;;25.77;41.93;100327.50;5388114;32;33801;-67
2022/08/05 02:02:14;;;;;;;;;;;;;;;26.42;40.59;100327.81;5408507;32;34618;-66
2022/08/05 02:05:17;;;;;;;;;;;;;;;26.44;40.36;100325.81;5387574;32;34782;-66
2022/08/05 02:08:24;;;;;;;;;;;;;;;26.40;40.37;100329.81;5399552;32;34771;-67
2022/08/05 02:11:37;;;;;;;;;;;;;;;26.15;40.60;100326.19;5413183;32;35365;-75
2022/08/05 02:14:56;;;;;;;;;;;;;;;26.03;40.75;100334.72;5393071;32;46846;-78
2022/08/05 02:18:05;;;;;;;;;;;;;;;25.99;40.24;100333.34;5404866;32;35704;-67
2022/08/05 02:21:27;;;;;;;;;;;;;;;26.07;39.89;100339.59;5395144;32;35832;-75
2022/08/05 02:24:39;;;;;;;;;;;;;;;25.65;40.59;100339.50;5392554;32;43502;-66
2022/08/05 02:27:41;;;;;;;;;;;;;;;25.47;41.56;100338.72;5403885;32;35111;-66
2022/08/05 02:31:04;;;;;;;;;;;;;;;25.36;41.82;100334.41;5394638;32;35172;-67
2022/08/05 02:34:10;;;;;;;;;;;;;;;25.84;40.86;100331.25;5413277;32;44807;-66
2022/08/05 02:37:12;;;;;;;;;;;;;;;25.36;41.93;100329.88;5399859;32;35237;-67
2022/08/05 02:40:17;;;;;;;;;;;;;;;26.03;40.66;100326.62;5395580;32;36658;-66
2022/08/05 02:43:19;;;;;;;;;;;;;;;25.61;41.66;100322.81;5401664;32;35396;-75
2022/08/05 02:46:21;;;;;;;;;;;;;;;26.22;40.61;100315.59;5399838;32;35728;-66
2022/08/05 02:49:40;;;;;;;;;;;;;;;26.09;40.78;100323.31;5422053;32;34852;-79
2022/08/05 02:52:44;;;;;;;;;;;;;;;26.41;40.17;100328.00;5379063;32;44772;-75
2022/08/05 02:55:46;;;;;;;;;;;;;;;26.25;40.72;100328.72;5409177;32;34459;-75
2022/08/05 02:59:01;;;;;;;;;;;;;;;25.53;42.64;100314.72;5409010;32;35929;-67
2022/08/05 03:02:03;;;;;;;;;;;;;;;24.81;44.42;100313.94;5391617;32;35376;-75
2022/08/05 03:05:06;;;;;;;;;;;;;;;25.19;43.69;100317.31;5404209;32;45104;-65
2022/08/05 03:08:09;;;;;;;;;;;;;;;24.80;44.85;100322.16;5381089;32;35634;-74
2022/08/05 03:11:18;;;;;;;;;;;;;;;24.74;45.13;100320.91;5413994;32;34818;-65
2022/08/05 03:14:40;;;;;;;;;;;;;;;25.45;43.93;100322.72;5408315;32;47099;-72
2022/08/05 03:17:46;;;;;;;;;;;;;;;25.81;43.24;100315.41;5386847;32;35011;-74
2022/08/05 03:20:54;;;;;;;;;;;;;;;25.80;42.85;100308.34;5414357;32;35117;-72
2022/08/05 03:23:58;;;;;;;;;;;;;;;24.89;45.27;100309.62;5389315;32;35465;-75
2022/08/05 03:27:00;;;;;;;;;;;;;;;25.10;44.55;100312.84;5414961;32;35322;-67
2022/08/05 03:30:03;;;;;;;;;;;;;;;25.07;44.33;100307.81;5401950;32;35146;-74
2022/08/05 03:33:09;;;;;;;;;;;;;;;24.26;45.29;100311.28;5385914;32;46776;-73
2022/08/05 03:36:11;;;;;;;;;;;;;;;24.65;44.76;100305.69;5413890;32;35216;-75
2022/08/05 03:39:13;;;;;;;;;;;;;;;25.35;42.97;100312.06;5392097;32;35436;-67
2022/08/05 03:42:28;;;;;;;;;;;;;;;24.91;44.66;100308.47;5401490;32;35972;-65
2022/08/05 03:45:33;;;;;;;;;;;;;;;24.60;45.93;100310.66;5397616;32;35848;-65
2022/08/05 03:48:55;;;;;;;;;;;;;;;24.34;46.77;100313.25;5397318;32;35624;-75
2022/08/05 03:52:01;;;;;;;;;;;;;;;24.05;47.72;100316.06;5382986;32;35827;-74
2022/08/05 03:55:24;;;;;;;;;;;;;;;24.75;46.07;100314.53;5402366;32;35622;-66
2022/08/05 03:58:46;;;;;;;;;;;;;;;24.58;46.15;100312.69;5402948;32;35176;-65
2022/08/05 04:01:52;;;;;;;;;;;;;;;24.87;44.78;100322.37;5393440;32;35471;-65
2022/08/05 04:04:59;;;;;;;;;;;;;;;25.09;45.04;100317.41;5394110;32;35373;-75
2022/08/05 04:08:02;;;;;;;;;;;;;;;24.40;45.99;100325.22;5399280;32;35299;-65
2022/08/05 04:11:06;;;;;;;;;;;;;;;24.05;46.87;100324.97;5397425;32;44432;-76
2022/08/05 04:14:10;;;;;;;;;;;;;;;24.96;45.04;100319.59;5411374;32;35424;-67
2022/08/05 04:17:18;;;;;;;;;;;;;;;25.65;43.07;100323.38;5399840;32;37287;-67
2022/08/05 04:20:21;;;;;;;;;;;;;;;25.09;43.57;100325.47;5417204;32;35379;-66
2022/08/05 04:23:24;;;;;;;;;;;;;;;24.48;45.32;100319.97;5390797;32;38323;-72
2022/08/05 04:26:46;;;;;;;;;;;;;;;24.97;44.20;100323.12;5392210;32;36008;-66
2022/08/05 04:29:48;;;;;;;;;;;;;;;25.17;43.82;100318.47;5414843;32;34662;-66
2022/08/05 04:32:50;;;;;;;;;;;;;;;25.67;42.37;100315.97;5389196;32;35466;-74
2022/08/05 04:35:52;;;;;;;;;;;;;;;26.26;40.89;100310.72;5402936;32;35425;-67
2022/08/05 04:39:13;;;;;;;;;;;;;;;25.55;42.37;100323.44;5391865;32;45027;-76
2022/08/05 04:42:15;;;;;;;;;;;;;;;26.10;41.13;100314.22;5387254;32;34756;-76
2022/08/05 04:45:17;;;;;;;;;;;;;;;25.59;42.52;100324.00;5416954;32;35081;-76
2022/08/05 04:48:39;;;;;;;;;;;;;;;25.77;42.16;100315.91;5390553;32;45522;-66
2022/08/05 04:51:43;;;;;;;;;;;;;;;27.56;38.66;100310.88;5392396;32;35799;-65
2022/08/05 04:54:44;;;;;;;;;;;;;;;27.84;37.28;100314.06;5395461;32;35926;-74
2022/08/05 04:57:46;;;;;;;;;;;;;;;27.26;38.38;100316.00;5405340;32;35874;-66
2022/08/05 05:00:55;;;;;;;;;;;;;;;27.87;37.28;100312.88;5394473;32;35394;-74
2022/08/05 05:03:57;;;;;;;;;;;;;;;27.89;37.40;100321.66;5389533;32;35959;-74
2022/08/05 05:07:00;;;;;;;;;;;;;;;28.50;36.01;100310.09;5414242;32;35459;-74
2022/08/05 05:10:04;;;;;;;;;;;;;;;29.34;34.56;100310.16;5401290;32;35631;-66
2022/08/05 05:13:14;;;;;;;;;;;;;;;30.51;32.02;100305.78;5414014;32;45340;-74
2022/08/05 05:16:18;;;;;;;;;;;;;;;28.69;35.41;100307.94;5400274;32;35600;-73
2022/08/05 05:19:20;;;;;;;;;;;;;;;30.82;31.28;100301.97;5394589;32;36216;-74
2022/08/05 05:22:27;;;;;;;;;;;;;;;29.21;33.99;100310.78;5408968;32;35512;-67
2022/08/05 05:25:29;;;;;;;;;;;;;;;30.53;31.63;100302.88;5403128;32;35698;-73
2022/08/05 05:28:41;;;;;;;;;;;;;;;30.56;31.44;100303.34;5407503;32;44395;-65
2022/08/05 05:31:45;;;;;;;;;;;;;;;32.29;28.30;100298.25;5395807;32;34832;-76
2022/08/05 05:34:47;;;;;;;;;;;;;;;32.22;28.76;100294.66;5399519;32;35207;-66
2022/08/05 05:37:54;;;;;;;;;;;;;;;31.70;30.46;100297.91;5408336;32;36290;-75
2022/08/05 05:41:01;;;;;;;;;;;;;;;30.16;31.16;100285.78;5394249;32;35825;-72
2022/08/05 05:44:03;;;;;;;;;;;;;;;30.59;30.71;100284.00;5407640;32;35318;-73
2022/08/05 05:47:24;;;;;;;;;;;;;;;32.19;28.70;100273.28;5386952;32;35905;-73
2022/08/05 05:50:31;;;;;;;;;;;;;;;32.77;27.87;100295.47;5400790;32;35475;-72
2022/08/05 05:53:34;;;;;;;;;;;;;;;33.20;26.77;100297.84;5385866;32;36066;-78
2022/08/05 05:56:57;;;;;;;;;;;;;;;32.75;27.70;100285.84;5388128;32;36306;-74
2022/08/05 05:59:59;;;;;;;;;;;;;;;33.32;26.35;100293.44;5409976;32;36015;-66
2022/08/05 06:03:02;;;;;;;;;;;;;;;33.14;25.93;100283.16;5392444;32;35259;-65
2022/08/05 06:06:24;;;;;;;;;;;;;;;33.75;25.45;100293.00;5408253;32;35612;-79
2022/08/05 06:09:31;;;;;;;;;;;;;;;35.07;23.71;100275.13;5399228;32;36520;-66
2022/08/05 06:12:53;;;;;;;;;;;;;;;32.50;26.81;100285.56;5392924;32;37626;-67
2022/08/05 06:15:58;;;;;;;;;;;;;;;33.35;25.32;100284.00;5403922;32;35929;-77
2022/08/05 06:19:20;;;;;;;;;;;;;;;32.91;26.06;100281.91;5397121;32;35784;-76
2022/08/05 06:22:35;;;;;;;;;;;;;;;32.72;25.86;100289.81;5399662;32;44336;-67
2022/08/05 06:25:41;;;;;;;;;;;;;;;35.34;22.58;100285.81;5405055;32;36383;-67
2022/08/05 06:29:03;;;;;;;;;;;;;;;33.59;24.66;100290.69;5397694;32;35499;-77
2022/08/05 06:32:25;;;;;;;;;;;;;;;34.59;22.13;100283.03;5404353;32;35873;-67
2022/08/05 06:35:30;;;;;;;;;;;;;;;34.75;22.05;100271.56;5398120;32;35630;-67
2022/08/05 06:38:53;;;;;;;;;;;;;;;33.93;22.99;100290.41;5394153;32;35663;-77
2022/08/05 06:41:57;;;;;;;;;;;;;;;35.78;20.70;100285.59;5405388;32;36017;-72
2022/08/05 06:45:00;;;;;;;;;;;;;;;33.66;23.53;100292.34;5389456;32;36171;-76
2022/08/05 06:48:09;;;;;;;;;;;;;;;35.09;20.88;100285.84;5405220;32;42664;-70
2022/08/05 06:51:31;;;;;;;;;;;;;;;34.74;21.19;100283.56;5375795;32;36257;-73
2022/08/05 06:54:33;;;;;;;;;;;;;;;34.84;20.83;100278.41;5399880;32;35929;-75
2022/08/05 06:57:36;;;;;;;;;;;;;;;33.91;22.47;100281.63;5406222;32;44771;-68
2022/08/05 07:00:59;;;;;;;;;;;;;;;34.10;21.86;100290.78;5398555;32;35785;-69
2022/08/05 07:04:01;;;;;;;;;;;;;;;35.35;20.78;100285.59;5405192;32;35867;-63
2022/08/05 07:07:03;;;;;;;;;;;;;;;37.62;17.97;100277.69;5393194;32;35942;-67
2022/08/05 07:10:08;;;;;;;;;;;;;;;36.12;19.47;100275.13;5402659;32;46135;-66
2022/08/05 07:16:59;;;;;;;;;;;;;;;36.36;19.37;100276.06;5396576;32;36466;-68
2022/08/05 07:20:21;;;;;;;;;;;;;;;36.47;19.13;100278.06;5414131;32;35703;-73
2022/08/05 07:23:39;;;;;;;;;;;;;;;36.42;19.32;100274.34;5392533;32;46979;-74
2022/08/05 07:26:52;;;;;;;;;;;;;;;37.01;18.65;100270.72;5396436;32;35627;-68
2022/08/05 07:29:57;;;;;;;;;;;;;;;36.71;18.78;100270.78;5411243;32;34768;-67
2022/08/05 07:33:20;;;;;;;;;;;;;;;39.32;15.51;100260.63;5395409;32;36226;-73
2022/08/05 07:36:38;;;;;;;;;;;;;;;37.64;16.96;100261.81;5402657;32;44557;-72
2022/08/05 07:39:40;;;;;;;;;;;;;;;40.37;14.18;100255.94;5401751;32;34633;-72
2022/08/05 07:43:02;;;;;;;;;;;;;;;37.46;16.82;100264.69;5403379;32;36599;-70
2022/08/05 07:46:21;;;;;;;;;;;;;;;39.74;14.44;100242.56;5408852;32;35286;-73
2022/08/05 07:49:26;;;;;;;;;;;;;;;36.13;18.38;100260.38;5386636;32;36361;-71
2022/08/05 07:52:29;;;;;;;;;;;;;;;37.57;16.78;100255.62;5390860;32;35597;-71
2022/08/05 07:55:32;;;;;;;;;;;;;;;37.86;16.59;100255.72;5403265;32;35322;-70
2022/08/05 07:58:54;;;;;;;;;;;;;;;36.61;18.16;100257.63;5398883;32;35710;-68
2022/08/05 08:02:01;;;;;;;;;;;;;;;39.77;14.99;100247.53;5408685;32;35905;-69
2022/08/05 08:05:04;;;;;;;;;;;;;;;40.57;14.15;100243.22;5398704;32;36007;-70
2022/08/05 08:08:06;;;;;;;;;;;;;;;41.08;13.73;100251.13;5411869;32;44956;-71
2022/08/05 08:11:14;;;;;;;;;;;;;;;39.96;14.85;100255.47;5395831;32;35549;-70
2022/08/05 08:14:16;;;;;;;;;;;;;;;38.37;16.31;100257.59;5401232;32;36552;-73
2022/08/05 08:17:20;;;;;;;;;;;;;;;39.28;15.68;100244.63;5408660;32;36252;-71
2022/08/05 08:20:23;;;;;;;;;;;;;;;40.72;14.05;100241.72;5398026;32;34870;-67
2022/08/05 08:23:45;;;;;;;;;;;;;;;39.21;15.31;100238.47;5416889;32;34858;-66
2022/08/05 08:27:05;;;;;;;;;;;;;;;39.42;15.30;100239.63;5396928;32;37058;-67
2022/08/05 08:30:10;;;;;;;;;;;;;;;39.72;15.14;100244.72;5395987;32;34671;-65
2022/08/05 08:33:32;;;;;;;;;;;;;;;38.85;15.84;100239.81;5406864;32;34807;-73
2022/08/05 08:36:39;;;;;;;;;;;;;;;39.10;15.62;100242.12;5394369;32;44340;-64
2022/08/05 08:39:55;;;;;;;;;;;;;;;37.73;17.12;100250.47;5411903;32;34849;-66
2022/08/05 08:42:57;;;;;;;;;;;;;;;39.97;15.09;100238.69;5387807;32;35337;-68
2022/08/05 08:46:19;;;;;;;;;;;;;;;39.74;15.14;100245.31;5393205;32;35990;-74
2022/08/05 08:49:23;;;;;;;;;;;;;;;39.40;15.58;100235.44;5414326;32;35979;-80
2022/08/05 08:52:48;;;;;;;;;;;;;;;40.75;14.37;100236.50;5373090;32;38973;-76
2022/08/05 08:55:53;;;;;;;;;;;;;;;41.73;13.64;100233.31;5412945;32;36071;-79
2022/08/05 08:59:06;;;;;;;;;;;;;;;40.09;14.79;100241.34;5403938;32;45152;-70
2022/08/05 09:02:20;;;;;;;;;;;;;;;42.51;13.08;100233.31;5399839;32;34663;-70
2022/08/05 09:05:27;;;;;;;;;;;;;;;42.31;12.84;100230.50;5414763;32;34997;-70
2022/08/05 09:08:49;;;;;;;;;;;;;;;41.50;13.63;100234.59;5387563;32;36623;-69
2022/08/05 09:11:51;;;;;;;;;;;;;;;40.89;13.99;100220.34;5410364;32;36194;-70
2022/08/05 09:15:04;;;;;;;;;;;;;;;40.70;14.31;100228.19;5405388;32;34886;-69
2022/08/05 09:18:08;;;;;;;;;;;;;;;41.40;13.64;100209.72;5398736;32;43776;-68
2022/08/05 09:21:10;;;;;;;;;;;;;;;40.84;13.85;100218.41;5414817;32;34578;-71
2022/08/05 09:24:21;;;;;;;;;;;;;;;40.16;14.52;100219.94;5401184;32;36286;-77
2022/08/05 09:27:29;;;;;;;;;;;;;;;39.60;15.49;100208.25;5410863;32;37076;-70
2022/08/05 09:30:55;;;;;;;;;;;;;;;41.32;13.70;100197.28;5393044;32;35587;-81
2022/08/05 09:34:01;;;;;;;;;;;;;;;41.21;13.98;100211.22;5397665;32;34709;-72
2022/08/05 09:37:03;;;;;;;;;;;;;;;42.98;12.03;100193.56;5417807;32;35215;-69
2022/08/05 09:40:48;;;;;;;;;;;;;;;41.55;13.35;100196.03;5408562;32;35034;-72
2022/08/05 09:43:54;;;;;;;;;;;;;;;43.44;11.70;100183.22;5375904;32;35199;-79
2022/08/05 09:47:11;;;;;;;;;;;;;;;42.85;12.07;100186.63;5402906;32;34924;-69
2022/08/05 09:50:18;;;;;;;;;;;;;;;41.08;13.78;100193.22;5381285;32;34571;-72
2022/08/05 09:53:50;;;;;;;;;;;;;;;40.10;14.96;100187.13;5416812;32;45145;-75
2022/08/05 09:56:56;;;;;;;;;;;;;;;42.37;12.83;100188.00;5397375;32;35417;-69
2022/08/05 10:00:17;;;;;;;;;;;;;;;45.09;10.78;100174.38;5398903;32;33906;-76
2022/08/05 10:03:20;;;;;;;;;;;;;;;42.29;12.94;100172.81;5409958;32;37472;-75
2022/08/05 10:06:22;;;;;;;;;;;;;;;43.78;11.81;100174.25;5391989;32;34796;-69
2022/08/05 10:09:24;;;;;;;;;;;;;;;45.53;10.43;100162.19;5409827;32;35769;-75
2022/08/05 10:12:31;;;;;;;;;;;;;;;44.65;10.95;100168.16;5390717;32;34852;-73
2022/08/05 10:15:35;;;;;;;;;;;;;;;44.54;11.14;100168.19;5400797;32;35540;-69
2022/08/05 10:18:42;;;;;;;;;;;;;;;43.39;12.00;100158.34;5397577;32;43999;-87
2022/08/05 10:21:49;;;;;;;;;;;;;;;45.08;10.77;100156.06;5385190;32;36177;-74
2022/08/05 10:24:51;;;;;;;;;;;;;;;43.84;11.63;100150.97;5410767;32;35433;-83
2022/08/05 10:27:53;;;;;;;;;;;;;;;44.89;10.93;100148.75;5392979;32;34865;-85
2022/08/05 10:31:14;;;;;;;;;;;;;;;42.62;12.82;100148.53;5411487;32;44592;-83
2022/08/05 10:34:35;;;;;;;;;;;;;;;45.58;10.57;100142.69;5410130;32;45439;-77
2022/08/05 10:37:42;;;;;;;;;;;;;;;46.43;9.81;100138.13;5403953;32;34838;-78
2022/08/05 10:40:53;;;;;;;;;;;;;;;45.99;10.07;100135.75;5392388;32;33758;-73
2022/08/05 10:44:04;;;;;;;;;;;;;;;44.82;10.68;100129.69;5397788;32;35389;-85
2022/08/05 10:47:11;;;;;;;;;;;;;;;43.96;11.26;100134.81;5411557;32;44986;-84
2022/08/05 10:50:28;;;;;;;;;;;;;;;43.73;11.39;100138.25;5394099;32;36135;-73
2022/08/05 10:53:54;;;;;;;;;;;;;;;42.21;12.63;100137.47;5385957;32;43352;-83
2022/08/05 10:56:56;;;;;;;;;;;;;;;40.77;13.93;100134.28;5417885;32;35420;-78
2022/08/05 11:00:15;;;;;;;;;;;;;;;40.38;14.49;100140.03;5404712;32;35027;-87
2022/08/05 11:03:23;;;;;;;;;;;;;;;40.75;14.03;100131.00;5416735;32;34859;-74
2022/08/05 11:06:27;;;;;;;;;;;;;;;41.37;13.50;100133.88;5404957;32;36194;-72
2022/08/05 11:09:53;;;;;;;;;;;;;;;41.21;13.45;100118.31;5396219;32;36083;-74
2022/08/05 11:13:20;;;;;;;;;;;;;;;42.13;12.80;100118.66;5412779;32;35807;-72
2022/08/05 11:16:24;;;;;;;;;;;;;;;43.17;12.35;100110.84;5392819;32;35036;-71
2022/08/05 11:19:47;;;;;;;;;;;;;;;44.56;10.89;100104.16;5393600;32;36109;-75
2022/08/05 11:23:27;;;;;;;;;;;;;;;45.49;10.31;100104.84;5413621;32;47611;-74
2022/08/05 11:26:50;;;;;;;;;;;;;;;47.54;8.49;100100.97;5398811;32;34990;-73
2022/08/05 11:29:58;;;;;;;;;;;;;;;43.83;11.00;100113.31;5406456;32;35024;-74
2022/08/05 11:33:20;;;;;;;;;;;;;;;45.47;10.18;100099.56;5395893;32;35461;-77
2022/08/05 11:36:37;;;;;;;;;;;;;;;44.97;10.17;100104.63;5381556;32;36184;-73
2022/08/05 11:39:48;;;;;;;;;;;;;;;44.24;10.87;100097.25;5399053;32;44172;-73
2022/08/05 11:43:01;;;;;;;;;;;;;;;47.97;8.42;100090.22;5380464;32;35035;-81
2022/08/05 11:46:03;;;;;;;;;;;;;;;48.38;8.09;100077.25;5388628;32;36481;-77
2022/08/05 11:49:25;;;;;;;;;;;;;;;48.78;7.87;100089.28;5400629;32;35235;-69
2022/08/05 11:52:28;;;;;;;;;;;;;;;46.43;9.42;100091.69;5362297;32;34864;-69
2022/08/05 11:55:31;;;;;;;;;;;;;;;46.71;8.85;100094.56;5401724;32;36207;-78
2022/08/05 11:58:41;;;;;;;;;;;;;;;45.84;9.63;100098.78;5390247;32;44812;-80
2022/08/05 12:02:07;;;;;;;;;;;;;;;47.01;8.83;100090.38;5396013;32;35463;-69
2022/08/05 12:05:29;;;;;;;;;;;;;;;47.97;8.01;100094.97;5412049;32;35733;-79
2022/08/05 12:08:41;;;;;;;;;;;;;;;49.70;6.90;100089.34;5387838;32;44608;-69
2022/08/05 12:11:52;;;;;;;;;;;;;;;48.58;7.42;100079.50;5402992;32;35404;-70
2022/08/05 12:14:54;;;;;;;;;;;;;;;46.87;8.36;100070.91;5389457;32;35121;-79
2022/08/05 12:17:57;;;;;;;;;;;;;;;45.62;9.32;100093.00;5394226;32;34847;-78
2022/08/05 12:21:22;;;;;;;;;;;;;;;44.13;10.53;100086.53;5410910;32;45596;-80
2022/08/05 12:24:24;;;;;;;;;;;;;;;46.60;8.91;100082.81;5395076;32;35852;-78
2022/08/05 12:27:28;;;;;;;;;;;;;;;49.13;7.29;100078.25;5415406;32;35280;-75
2022/08/05 12:30:36;;;;;;;;;;;;;;;45.93;9.42;100078.69;5392434;32;35483;-75
2022/08/05 12:33:46;;;;;;;;;;;;;;;45.51;9.61;100072.88;5391365;32;35264;-76
2022/08/05 12:36:49;;;;;;;;;;;;;;;46.37;8.97;100072.66;5412384;32;36056;-70
2022/08/05 12:39:52;;;;;;;;;;;;;;;43.97;10.23;100066.44;5387596;32;35754;-78
2022/08/05 12:42:54;;;;;;;;;;;;;;;41.39;12.29;100076.53;5399746;32;35686;-70
2022/08/05 12:45:56;;;;;;;;;;;;;;;41.98;12.13;100069.78;5395701;32;36016;-69
2022/08/05 12:49:09;;;;;;;;;;;;;;;42.85;11.36;100065.03;5414403;32;35460;-69
2022/08/05 12:52:15;;;;;;;;;;;;;;;41.08;12.69;100071.97;5369484;32;44591;-70
2022/08/05 12:55:29;;;;;;;;;;;;;;;39.50;14.08;100076.12;5397195;32;36076;-69
2022/08/05 12:58:35;;;;;;;;;;;;;;;39.14;14.14;100072.91;5405234;32;44585;-78
2022/08/05 13:01:58;;;;;;;;;;;;;;;38.93;14.57;100066.31;5388040;32;35446;-78
2022/08/05 13:05:08;;;;;;;;;;;;;;;40.19;13.63;100061.69;5401838;32;44745;-68
2022/08/05 13:08:16;;;;;;;;;;;;;;;40.08;14.07;100052.53;5384720;32;35117;-68
2022/08/05 13:11:18;;;;;;;;;;;;;;;39.66;13.92;100061.47;5402395;32;34723;-81
2022/08/05 13:14:44;;;;;;;;;;;;;;;39.20;14.25;100049.91;5409343;32;44721;-68
2022/08/05 13:17:59;;;;;;;;;;;;;;;38.54;14.86;100048.16;5391682;32;36015;-80
2022/08/05 13:21:01;;;;;;;;;;;;;;;38.03;15.29;100034.41;5406859;32;35298;-77
2022/08/05 13:24:05;;;;;;;;;;;;;;;38.00;14.93;100036.81;5395553;32;37705;-69
2022/08/05 13:27:09;;;;;;;;;;;;;;;39.21;14.09;100020.50;5394556;32;44661;-81
2022/08/05 13:30:20;;;;;;;;;;;;;;;39.09;14.23;100026.13;5410513;32;35234;-69
2022/08/05 13:33:36;;;;;;;;;;;;;;;38.57;15.12;100020.16;5394129;32;44535;-68
2022/08/05 13:36:59;;;;;;;;;;;;;;;38.65;14.90;100017.84;5407525;32;35936;-68
2022/08/05 13:40:01;;;;;;;;;;;;;;;38.83;14.85;100015.88;5401252;32;35532;-79
2022/08/05 13:43:17;;;;;;;;;;;;;;;38.87;14.58;100017.88;5384891;32;35463;-70
2022/08/05 13:46:23;;;;;;;;;;;;;;;37.51;16.04;100007.16;5407783;32;35469;-79
2022/08/05 13:49:45;;;;;;;;;;;;;;;38.21;15.12;100008.66;5391265;32;35415;-68
2022/08/05 13:52:49;;;;;;;;;;;;;;;38.54;15.00;99994.06;5379989;32;35293;-68
2022/08/05 13:55:52;;;;;;;;;;;;;;;38.06;15.64;100019.34;5397711;32;36132;-71
2022/08/05 13:59:02;;;;;;;;;;;;;;;38.98;14.54;100003.19;5387864;32;35137;-79
2022/08/05 14:02:20;;;;;;;;;;;;;;;37.55;15.96;100001.97;5405253;32;34718;-79
2022/08/05 14:05:27;;;;;;;;;;;;;;;38.71;14.94;100002.31;5386540;32;35337;-69
2022/08/05 14:08:49;;;;;;;;;;;;;;;38.43;14.99;99995.00;5400123;32;35260;-69
2022/08/05 14:11:53;;;;;;;;;;;;;;;38.57;14.90;99985.31;5393192;32;36098;-78
2022/08/05 14:15:15;;;;;;;;;;;;;;;38.57;14.76;99989.97;5397610;32;35182;-69
2022/08/05 14:18:37;;;;;;;;;;;;;;;38.62;14.76;99990.88;5405073;32;45164;-79
2022/08/05 14:21:39;;;;;;;;;;;;;;;37.31;15.97;99993.03;5396899;32;34974;-68
2022/08/05 14:25:01;;;;;;;;;;;;;;;38.25;15.26;99987.00;5403513;32;34938;-79
2022/08/05 14:28:07;;;;;;;;;;;;;;;37.64;15.56;99984.91;5401001;32;46865;-78
2022/08/05 14:31:27;;;;;;;;;;;;;;;37.32;15.82;99973.59;5394220;32;36229;-69
2022/08/05 14:34:49;;;;;;;;;;;;;;;37.79;15.55;99970.63;5407551;32;35289;-80
2022/08/05 14:37:52;;;;;;;;;;;;;;;37.94;15.43;99964.59;5384214;32;34834;-68
2022/08/05 14:40:56;;;;;;;;;;;;;;;38.27;15.00;99966.50;5397320;32;34856;-75
2022/08/05 14:43:58;;;;;;;;;;;;;;;37.10;15.82;99972.63;5410971;32;36046;-70
2022/08/05 14:47:20;;;;;;;;;;;;;;;37.44;15.67;99964.53;5387223;32;35659;-70
2022/08/05 14:50:42;;;;;;;;;;;;;;;37.75;15.33;99960.41;5397176;32;44969;-79
2022/08/05 14:53:44;;;;;;;;;;;;;;;36.87;16.35;99966.12;5382738;32;37348;-78
2022/08/05 14:57:06;;;;;;;;;;;;;;;37.08;16.19;99958.31;5399691;32;45063;-77
2022/08/05 15:00:14;;;;;;;;;;;;;;;37.22;16.08;99956.13;5415082;32;35504;-75
2022/08/05 15:03:20;;;;;;;;;;;;;;;37.70;15.31;99955.66;5383210;32;35596;-68
2022/08/05 15:06:23;;;;;;;;;;;;;;;38.30;14.77;99949.53;5406351;32;35871;-69
2022/08/05 15:09:30;;;;;;;;;;;;;;;38.46;14.48;99956.91;5390970;32;36489;-70
2022/08/05 15:12:52;;;;;;;;;;;;;;;38.18;14.76;99941.34;5380823;32;35984;-79
2022/08/05 15:16:04;;;;;;;;;;;;;;;37.99;14.96;99944.62;5411203;32;35240;-68
2022/08/05 15:19:07;;;;;;;;;;;;;;;37.69;15.57;99940.31;5388139;32;43525;-78
2022/08/05 15:22:24;;;;;;;;;;;;;;;37.96;14.98;99939.66;5408322;32;35932;-68
2022/08/05 15:25:28;;;;;;;;;;;;;;;38.71;14.08;99934.47;5388097;32;35272;-79
2022/08/05 15:28:50;;;;;;;;;;;;;;;38.50;14.30;99940.75;5390567;32;35833;-78
2022/08/05 15:31:52;;;;;;;;;;;;;;;38.51;14.29;99925.09;5411229;32;35418;-69
2022/08/05 15:34:55;;;;;;;;;;;;;;;37.37;15.44;99931.78;5394095;32;36037;-69
2022/08/05 15:37:57;;;;;;;;;;;;;;;37.83;14.95;99922.47;5402429;32;35363;-68
2022/08/05 15:41:19;;;;;;;;;;;;;;;37.75;14.73;99922.84;5390689;32;34967;-79
2022/08/05 15:44:26;;;;;;;;;;;;;;;37.62;15.15;99914.97;5392112;32;36822;-69
2022/08/05 15:47:28;;;;;;;;;;;;;;;37.48;15.33;99921.81;5400180;32;35426;-68
2022/08/05 15:50:32;;;;;;;;;;;;;;;37.07;15.53;99913.66;5384364;32;35386;-74
2022/08/05 15:53:36;;;;;;;;;;;;;;;36.83;16.11;99912.88;5397587;32;45249;-66
2022/08/05 15:56:52;;;;;;;;;;;;;;;36.50;16.57;99912.75;5391775;32;35414;-67
2022/08/05 15:59:54;;;;;;;;;;;;;;;37.30;15.79;99906.44;5406172;32;35894;-68
2022/08/05 16:02:58;;;;;;;;;;;;;;;38.06;14.77;99910.44;5386369;32;36291;-67
2022/08/05 16:06:00;;;;;;;;;;;;;;;37.72;15.20;99911.53;5393155;32;35318;-78
2022/08/05 16:09:03;;;;;;;;;;;;;;;37.32;15.71;99909.75;5408770;32;35492;-77
2022/08/05 16:12:05;;;;;;;;;;;;;;;36.80;16.02;99909.81;5386536;32;43860;-69
2022/08/05 16:15:08;;;;;;;;;;;;;;;37.22;15.44;99904.06;5411008;32;38113;-68
2022/08/05 16:18:11;;;;;;;;;;;;;;;37.28;15.62;99911.31;5386098;32;35088;-74